sensor_id;sensor_type;location;lat;lon;timestamp;P1;durP1;ratioP1;P2;durP2;ratioP2
21645;SDS011;10984;45.712;4.800;2023-08-06T00:00:03;1.13;;;0.28;;
21645;SDS011;10984;45.712;4.800;2023-08-06T00:02:30;1.63;;;0.30;;
21645;SDS011;10984;45.712;4.800;2023-08-06T00:04:55;1.88;;;0.40;;
21645;SDS011;10984;45.712;4.800;2023-08-06T00:07:21;0.85;;;0.30;;
21645;SDS011;10984;45.712;4.800;2023-08-06T00:09:46;0.77;;;0.30;;
21645;SDS011;10984;45.712;4.800;2023-08-06T00:12:12;1.30;;;0.45;;
21645;SDS011;10984;45.712;4.800;2023-08-06T00:14:38;1.13;;;0.40;;
21645;SDS011;10984;45.712;4.800;2023-08-06T00:17:03;0.70;;;0.22;;
21645;SDS011;10984;45.712;4.800;2023-08-06T00:19:30;1.45;;;0.47;;
21645;SDS011;10984;45.712;4.800;2023-08-06T00:21:56;0.85;;;0.30;;
21645;SDS011;10984;45.712;4.800;2023-08-06T00:24:22;0.40;;;0.20;;
21645;SDS011;10984;45.712;4.800;2023-08-06T00:26:48;1.35;;;0.32;;
21645;SDS011;10984;45.712;4.800;2023-08-06T00:29:13;1.30;;;0.40;;
21645;SDS011;10984;45.712;4.800;2023-08-06T00:31:39;1.15;;;0.40;;
21645;SDS011;10984;45.712;4.800;2023-08-06T00:34:05;1.20;;;0.40;;
21645;SDS011;10984;45.712;4.800;2023-08-06T00:36:30;1.90;;;0.43;;
21645;SDS011;10984;45.712;4.800;2023-08-06T00:38:56;2.92;;;0.43;;
21645;SDS011;10984;45.712;4.800;2023-08-06T00:41:22;0.93;;;0.32;;
21645;SDS011;10984;45.712;4.800;2023-08-06T00:43:47;1.27;;;0.50;;
21645;SDS011;10984;45.712;4.800;2023-08-06T00:46:13;1.95;;;0.63;;
21645;SDS011;10984;45.712;4.800;2023-08-06T00:48:39;1.00;;;0.32;;
21645;SDS011;10984;45.712;4.800;2023-08-06T00:51:06;0.52;;;0.20;;
21645;SDS011;10984;45.712;4.800;2023-08-06T00:53:34;1.25;;;0.40;;
21645;SDS011;10984;45.712;4.800;2023-08-06T00:55:59;1.08;;;0.43;;
21645;SDS011;10984;45.712;4.800;2023-08-06T00:58:25;0.95;;;0.35;;
21645;SDS011;10984;45.712;4.800;2023-08-06T01:00:51;1.63;;;0.55;;
21645;SDS011;10984;45.712;4.800;2023-08-06T01:03:17;0.47;;;0.22;;
21645;SDS011;10984;45.712;4.800;2023-08-06T01:05:43;1.38;;;0.52;;
21645;SDS011;10984;45.712;4.800;2023-08-06T01:17:03;0.63;;;0.30;;
21645;SDS011;10984;45.712;4.800;2023-08-06T01:19:30;1.75;;;0.35;;
21645;SDS011;10984;45.712;4.800;2023-08-06T01:21:55;0.90;;;0.38;;
21645;SDS011;10984;45.712;4.800;2023-08-06T01:24:21;1.65;;;0.52;;
21645;SDS011;10984;45.712;4.800;2023-08-06T01:32:41;2.88;;;0.60;;
21645;SDS011;10984;45.712;4.800;2023-08-06T01:35:09;3.55;;;0.82;;
21645;SDS011;10984;45.712;4.800;2023-08-06T01:37:37;4.40;;;1.20;;
21645;SDS011;10984;45.712;4.800;2023-08-06T01:42:48;3.25;;;0.70;;
21645;SDS011;10984;45.712;4.800;2023-08-06T01:45:13;5.25;;;0.70;;
21645;SDS011;10984;45.712;4.800;2023-08-06T01:47:39;4.80;;;0.70;;
21645;SDS011;10984;45.712;4.800;2023-08-06T01:50:05;4.10;;;0.70;;
21645;SDS011;10984;45.712;4.800;2023-08-06T01:52:31;4.00;;;0.70;;
21645;SDS011;10984;45.712;4.800;2023-08-06T01:54:57;4.25;;;0.63;;
21645;SDS011;10984;45.712;4.800;2023-08-06T01:57:22;4.53;;;1.00;;
21645;SDS011;10984;45.712;4.800;2023-08-06T01:59:48;4.15;;;0.90;;
21645;SDS011;10984;45.712;4.800;2023-08-06T02:02:13;2.78;;;0.65;;
21645;SDS011;10984;45.712;4.800;2023-08-06T02:04:39;4.32;;;0.98;;
21645;SDS011;10984;45.712;4.800;2023-08-06T02:07:05;2.83;;;0.63;;
21645;SDS011;10984;45.712;4.800;2023-08-06T02:09:30;4.45;;;0.82;;
21645;SDS011;10984;45.712;4.800;2023-08-06T02:11:56;3.20;;;1.00;;
21645;SDS011;10984;45.712;4.800;2023-08-06T02:14:22;9.35;;;1.38;;
21645;SDS011;10984;45.712;4.800;2023-08-06T02:16:47;6.97;;;1.23;;
21645;SDS011;10984;45.712;4.800;2023-08-06T02:19:14;6.75;;;1.13;;
21645;SDS011;10984;45.712;4.800;2023-08-06T02:21:40;6.95;;;1.50;;
21645;SDS011;10984;45.712;4.800;2023-08-06T02:24:05;5.57;;;1.38;;
21645;SDS011;10984;45.712;4.800;2023-08-06T02:26:31;6.65;;;1.15;;
21645;SDS011;10984;45.712;4.800;2023-08-06T02:28:57;5.45;;;0.95;;
21645;SDS011;10984;45.712;4.800;2023-08-06T02:31:23;8.50;;;1.50;;
21645;SDS011;10984;45.712;4.800;2023-08-06T02:33:48;7.20;;;1.63;;
21645;SDS011;10984;45.712;4.800;2023-08-06T02:36:14;4.75;;;1.00;;
21645;SDS011;10984;45.712;4.800;2023-08-06T02:38:39;4.55;;;1.20;;
21645;SDS011;10984;45.712;4.800;2023-08-06T02:41:05;6.90;;;1.42;;
21645;SDS011;10984;45.712;4.800;2023-08-06T02:43:31;9.13;;;1.30;;
21645;SDS011;10984;45.712;4.800;2023-08-06T02:45:57;9.30;;;1.88;;
21645;SDS011;10984;45.712;4.800;2023-08-06T02:48:23;6.47;;;1.23;;
21645;SDS011;10984;45.712;4.800;2023-08-06T02:50:49;7.15;;;1.42;;
21645;SDS011;10984;45.712;4.800;2023-08-06T02:53:15;8.18;;;1.30;;
21645;SDS011;10984;45.712;4.800;2023-08-06T02:55:45;9.98;;;1.33;;
21645;SDS011;10984;45.712;4.800;2023-08-06T02:58:12;5.65;;;1.42;;
21645;SDS011;10984;45.712;4.800;2023-08-06T03:00:38;7.55;;;1.73;;
21645;SDS011;10984;45.712;4.800;2023-08-06T03:03:04;7.57;;;1.20;;
21645;SDS011;10984;45.712;4.800;2023-08-06T03:05:30;5.57;;;1.27;;
21645;SDS011;10984;45.712;4.800;2023-08-06T03:07:55;10.82;;;1.35;;
21645;SDS011;10984;45.712;4.800;2023-08-06T03:10:21;4.85;;;1.10;;
21645;SDS011;10984;45.712;4.800;2023-08-06T03:12:46;7.25;;;1.60;;
21645;SDS011;10984;45.712;4.800;2023-08-06T03:15:12;6.53;;;1.05;;
21645;SDS011;10984;45.712;4.800;2023-08-06T03:17:38;4.70;;;1.05;;
21645;SDS011;10984;45.712;4.800;2023-08-06T03:20:03;10.52;;;1.25;;
21645;SDS011;10984;45.712;4.800;2023-08-06T03:22:30;8.43;;;0.90;;
21645;SDS011;10984;45.712;4.800;2023-08-06T03:24:55;4.88;;;1.00;;
21645;SDS011;10984;45.712;4.800;2023-08-06T03:27:21;3.67;;;1.17;;
21645;SDS011;10984;45.712;4.800;2023-08-06T03:29:48;7.72;;;1.27;;
21645;SDS011;10984;45.712;4.800;2023-08-06T03:32:15;5.40;;;0.80;;
21645;SDS011;10984;45.712;4.800;2023-08-06T03:34:40;7.35;;;1.30;;
21645;SDS011;10984;45.712;4.800;2023-08-06T03:37:06;8.40;;;1.27;;
21645;SDS011;10984;45.712;4.800;2023-08-06T03:39:32;6.35;;;1.15;;
21645;SDS011;10984;45.712;4.800;2023-08-06T03:41:57;7.32;;;1.30;;
21645;SDS011;10984;45.712;4.800;2023-08-06T03:44:23;8.60;;;1.90;;
21645;SDS011;10984;45.712;4.800;2023-08-06T03:46:49;7.30;;;1.10;;
21645;SDS011;10984;45.712;4.800;2023-08-06T03:49:14;7.30;;;1.63;;
21645;SDS011;10984;45.712;4.800;2023-08-06T03:51:40;6.93;;;1.65;;
21645;SDS011;10984;45.712;4.800;2023-08-06T03:54:05;5.93;;;1.00;;
21645;SDS011;10984;45.712;4.800;2023-08-06T03:56:31;10.35;;;1.33;;
21645;SDS011;10984;45.712;4.800;2023-08-06T03:58:57;5.55;;;1.20;;
21645;SDS011;10984;45.712;4.800;2023-08-06T04:01:22;7.28;;;1.52;;
21645;SDS011;10984;45.712;4.800;2023-08-06T04:03:48;5.10;;;1.10;;
21645;SDS011;10984;45.712;4.800;2023-08-06T04:06:13;6.57;;;1.38;;
21645;SDS011;10984;45.712;4.800;2023-08-06T04:08:39;4.93;;;1.30;;
21645;SDS011;10984;45.712;4.800;2023-08-06T04:11:05;4.32;;;0.68;;
21645;SDS011;10984;45.712;4.800;2023-08-06T04:13:30;4.43;;;1.00;;
21645;SDS011;10984;45.712;4.800;2023-08-06T04:16:00;7.65;;;1.15;;
21645;SDS011;10984;45.712;4.800;2023-08-06T04:18:27;4.65;;;1.00;;
21645;SDS011;10984;45.712;4.800;2023-08-06T04:20:52;7.53;;;0.90;;
21645;SDS011;10984;45.712;4.800;2023-08-06T04:23:20;4.88;;;0.80;;
21645;SDS011;10984;45.712;4.800;2023-08-06T04:25:45;4.88;;;0.98;;
21645;SDS011;10984;45.712;4.800;2023-08-06T04:28:11;3.50;;;0.80;;
21645;SDS011;10984;45.712;4.800;2023-08-06T04:30:37;3.80;;;0.80;;
21645;SDS011;10984;45.712;4.800;2023-08-06T04:33:03;2.10;;;0.30;;
21645;SDS011;10984;45.712;4.800;2023-08-06T04:35:29;3.03;;;1.00;;
21645;SDS011;10984;45.712;4.800;2023-08-06T04:37:54;3.40;;;0.60;;
21645;SDS011;10984;45.712;4.800;2023-08-06T04:40:20;4.07;;;0.60;;
21645;SDS011;10984;45.712;4.800;2023-08-06T04:42:45;5.13;;;0.57;;
21645;SDS011;10984;45.712;4.800;2023-08-06T04:45:11;5.47;;;0.90;;
21645;SDS011;10984;45.712;4.800;2023-08-06T04:47:37;2.78;;;0.73;;
21645;SDS011;10984;45.712;4.800;2023-08-06T04:50:02;2.08;;;0.60;;
21645;SDS011;10984;45.712;4.800;2023-08-06T04:52:28;2.15;;;0.65;;
21645;SDS011;10984;45.712;4.800;2023-08-06T04:54:54;7.30;;;1.05;;
21645;SDS011;10984;45.712;4.800;2023-08-06T04:57:20;4.30;;;0.70;;
21645;SDS011;10984;45.712;4.800;2023-08-06T04:59:46;2.17;;;0.63;;
21645;SDS011;10984;45.712;4.800;2023-08-06T05:02:12;12.13;;;1.58;;
21645;SDS011;10984;45.712;4.800;2023-08-06T05:04:37;1.65;;;0.60;;
21645;SDS011;10984;45.712;4.800;2023-08-06T05:07:03;4.72;;;0.82;;
21645;SDS011;10984;45.712;4.800;2023-08-06T05:09:30;2.85;;;0.68;;
21645;SDS011;10984;45.712;4.800;2023-08-06T05:11:56;4.30;;;0.60;;
21645;SDS011;10984;45.712;4.800;2023-08-06T05:14:21;6.78;;;1.58;;
21645;SDS011;10984;45.712;4.800;2023-08-06T05:16:47;5.53;;;1.35;;
21645;SDS011;10984;45.712;4.800;2023-08-06T05:19:13;4.10;;;0.77;;
21645;SDS011;10984;45.712;4.800;2023-08-06T05:21:38;5.82;;;1.00;;
21645;SDS011;10984;45.712;4.800;2023-08-06T05:24:04;3.45;;;0.55;;
21645;SDS011;10984;45.712;4.800;2023-08-06T05:26:29;7.13;;;0.88;;
21645;SDS011;10984;45.712;4.800;2023-08-06T05:28:55;3.28;;;0.50;;
21645;SDS011;10984;45.712;4.800;2023-08-06T05:31:21;6.30;;;1.27;;
21645;SDS011;10984;45.712;4.800;2023-08-06T05:33:46;2.13;;;0.52;;
21645;SDS011;10984;45.712;4.800;2023-08-06T05:36:12;3.10;;;0.38;;
21645;SDS011;10984;45.712;4.800;2023-08-06T05:38:38;2.33;;;0.60;;
21645;SDS011;10984;45.712;4.800;2023-08-06T05:41:03;2.25;;;0.50;;
21645;SDS011;10984;45.712;4.800;2023-08-06T05:43:29;4.70;;;0.90;;
21645;SDS011;10984;45.712;4.800;2023-08-06T05:45:55;2.45;;;0.50;;
21645;SDS011;10984;45.712;4.800;2023-08-06T05:48:22;1.90;;;0.77;;
21645;SDS011;10984;45.712;4.800;2023-08-06T05:50:49;5.47;;;0.75;;
21645;SDS011;10984;45.712;4.800;2023-08-06T05:53:16;3.00;;;0.45;;
21645;SDS011;10984;45.712;4.800;2023-08-06T05:55:42;4.95;;;0.70;;
21645;SDS011;10984;45.712;4.800;2023-08-06T05:58:08;1.88;;;0.73;;
21645;SDS011;10984;45.712;4.800;2023-08-06T06:00:34;4.15;;;0.93;;
21645;SDS011;10984;45.712;4.800;2023-08-06T06:03:00;5.22;;;0.95;;
21645;SDS011;10984;45.712;4.800;2023-08-06T06:05:26;3.75;;;0.60;;
21645;SDS011;10984;45.712;4.800;2023-08-06T06:07:51;5.88;;;0.70;;
21645;SDS011;10984;45.712;4.800;2023-08-06T06:10:17;4.93;;;0.70;;
21645;SDS011;10984;45.712;4.800;2023-08-06T06:12:42;2.58;;;0.55;;
21645;SDS011;10984;45.712;4.800;2023-08-06T06:15:08;4.88;;;0.50;;
21645;SDS011;10984;45.712;4.800;2023-08-06T06:17:34;3.17;;;0.50;;
21645;SDS011;10984;45.712;4.800;2023-08-06T06:20:00;1.88;;;0.30;;
21645;SDS011;10984;45.712;4.800;2023-08-06T06:22:26;1.40;;;0.30;;
21645;SDS011;10984;45.712;4.800;2023-08-06T06:24:51;4.05;;;0.50;;
21645;SDS011;10984;45.712;4.800;2023-08-06T06:27:17;2.47;;;0.70;;
21645;SDS011;10984;45.712;4.800;2023-08-06T06:29:43;2.15;;;0.55;;
21645;SDS011;10984;45.712;4.800;2023-08-06T06:32:08;2.17;;;0.50;;
21645;SDS011;10984;45.712;4.800;2023-08-06T06:34:34;0.57;;;0.20;;
21645;SDS011;10984;45.712;4.800;2023-08-06T06:37:00;1.33;;;0.40;;
21645;SDS011;10984;45.712;4.800;2023-08-06T06:39:26;1.85;;;0.30;;
21645;SDS011;10984;45.712;4.800;2023-08-06T06:41:51;2.25;;;0.50;;
21645;SDS011;10984;45.712;4.800;2023-08-06T06:44:17;1.45;;;0.57;;
21645;SDS011;10984;45.712;4.800;2023-08-06T06:46:45;1.00;;;0.30;;
21645;SDS011;10984;45.712;4.800;2023-08-06T06:49:10;2.28;;;0.40;;
21645;SDS011;10984;45.712;4.800;2023-08-06T06:51:36;1.20;;;0.30;;
21645;SDS011;10984;45.712;4.800;2023-08-06T06:54:02;4.50;;;0.40;;
21645;SDS011;10984;45.712;4.800;2023-08-06T06:56:27;2.28;;;0.50;;
21645;SDS011;10984;45.712;4.800;2023-08-06T06:58:53;1.83;;;0.30;;
21645;SDS011;10984;45.712;4.800;2023-08-06T07:01:19;1.33;;;0.57;;
21645;SDS011;10984;45.712;4.800;2023-08-06T07:03:44;2.60;;;0.50;;
21645;SDS011;10984;45.712;4.800;2023-08-06T07:06:10;1.00;;;0.38;;
21645;SDS011;10984;45.712;4.800;2023-08-06T07:08:37;1.50;;;0.40;;
21645;SDS011;10984;45.712;4.800;2023-08-06T07:11:03;2.58;;;0.38;;
21645;SDS011;10984;45.712;4.800;2023-08-06T07:13:29;2.05;;;0.40;;
21645;SDS011;10984;45.712;4.800;2023-08-06T07:15:55;1.83;;;0.40;;
21645;SDS011;10984;45.712;4.800;2023-08-06T07:18:21;1.02;;;0.25;;
21645;SDS011;10984;45.712;4.800;2023-08-06T07:20:50;3.38;;;0.30;;
21645;SDS011;10984;45.712;4.800;2023-08-06T07:23:18;2.38;;;0.40;;
21645;SDS011;10984;45.712;4.800;2023-08-06T07:26:02;1.63;;;0.35;;
21645;SDS011;10984;45.712;4.800;2023-08-06T07:28:28;3.35;;;0.77;;
21645;SDS011;10984;45.712;4.800;2023-08-06T07:30:53;1.42;;;0.15;;
21645;SDS011;10984;45.712;4.800;2023-08-06T07:33:19;2.63;;;0.50;;
21645;SDS011;10984;45.712;4.800;2023-08-06T07:35:45;0.75;;;0.40;;
21645;SDS011;10984;45.712;4.800;2023-08-06T07:38:11;2.75;;;0.50;;
21645;SDS011;10984;45.712;4.800;2023-08-06T07:40:38;1.38;;;0.40;;
21645;SDS011;10984;45.712;4.800;2023-08-06T07:43:04;1.75;;;0.30;;
21645;SDS011;10984;45.712;4.800;2023-08-06T07:48:14;2.90;;;0.40;;
21645;SDS011;10984;45.712;4.800;2023-08-06T07:50:40;1.58;;;0.70;;
21645;SDS011;10984;45.712;4.800;2023-08-06T07:53:05;2.42;;;0.70;;
21645;SDS011;10984;45.712;4.800;2023-08-06T07:55:31;2.72;;;0.30;;
21645;SDS011;10984;45.712;4.800;2023-08-06T07:57:57;4.65;;;0.65;;
21645;SDS011;10984;45.712;4.800;2023-08-06T08:00:22;5.35;;;0.55;;
21645;SDS011;10984;45.712;4.800;2023-08-06T08:02:48;3.17;;;0.60;;
21645;SDS011;10984;45.712;4.800;2023-08-06T08:05:14;2.95;;;0.40;;
21645;SDS011;10984;45.712;4.800;2023-08-06T08:07:39;1.75;;;0.32;;
21645;SDS011;10984;45.712;4.800;2023-08-06T08:10:05;2.05;;;0.57;;
21645;SDS011;10984;45.712;4.800;2023-08-06T08:12:31;3.03;;;0.60;;
21645;SDS011;10984;45.712;4.800;2023-08-06T08:14:57;2.92;;;0.50;;
21645;SDS011;10984;45.712;4.800;2023-08-06T08:17:22;1.60;;;0.40;;
21645;SDS011;10984;45.712;4.800;2023-08-06T08:19:48;2.80;;;0.50;;
21645;SDS011;10984;45.712;4.800;2023-08-06T08:22:14;3.63;;;0.50;;
21645;SDS011;10984;45.712;4.800;2023-08-06T08:24:39;2.72;;;0.63;;
21645;SDS011;10984;45.712;4.800;2023-08-06T08:27:05;3.65;;;0.57;;
21645;SDS011;10984;45.712;4.800;2023-08-06T08:29:30;3.70;;;1.50;;
21645;SDS011;10984;45.712;4.800;2023-08-06T08:31:56;1.80;;;0.50;;
21645;SDS011;10984;45.712;4.800;2023-08-06T08:34:22;5.22;;;0.98;;
21645;SDS011;10984;45.712;4.800;2023-08-06T08:36:47;8.13;;;1.13;;
21645;SDS011;10984;45.712;4.800;2023-08-06T08:39:14;5.97;;;0.85;;
21645;SDS011;10984;45.712;4.800;2023-08-06T08:41:40;4.32;;;0.75;;
21645;SDS011;10984;45.712;4.800;2023-08-06T08:44:07;4.68;;;0.70;;
21645;SDS011;10984;45.712;4.800;2023-08-06T08:46:35;3.35;;;1.00;;
21645;SDS011;10984;45.712;4.800;2023-08-06T08:49:03;1.95;;;0.40;;
21645;SDS011;10984;45.712;4.800;2023-08-06T08:51:29;5.63;;;0.52;;
21645;SDS011;10984;45.712;4.800;2023-08-06T08:53:56;3.95;;;0.80;;
21645;SDS011;10984;45.712;4.800;2023-08-06T08:56:22;4.47;;;0.70;;
21645;SDS011;10984;45.712;4.800;2023-08-06T08:58:49;2.20;;;0.40;;
21645;SDS011;10984;45.712;4.800;2023-08-06T09:01:15;1.42;;;0.40;;
21645;SDS011;10984;45.712;4.800;2023-08-06T09:03:41;2.15;;;0.32;;
21645;SDS011;10984;45.712;4.800;2023-08-06T09:06:09;3.30;;;0.60;;
21645;SDS011;10984;45.712;4.800;2023-08-06T09:08:39;2.38;;;0.47;;
21645;SDS011;10984;45.712;4.800;2023-08-06T09:11:12;1.33;;;0.30;;
21645;SDS011;10984;45.712;4.800;2023-08-06T09:13:38;1.85;;;0.60;;
21645;SDS011;10984;45.712;4.800;2023-08-06T09:16:04;2.35;;;0.40;;
21645;SDS011;10984;45.712;4.800;2023-08-06T09:18:30;2.75;;;0.55;;
21645;SDS011;10984;45.712;4.800;2023-08-06T09:20:56;3.00;;;0.80;;
21645;SDS011;10984;45.712;4.800;2023-08-06T09:26:07;3.08;;;0.63;;
21645;SDS011;10984;45.712;4.800;2023-08-06T09:28:37;2.53;;;0.30;;
21645;SDS011;10984;45.712;4.800;2023-08-06T09:31:22;3.53;;;0.40;;
21645;SDS011;10984;45.712;4.800;2023-08-06T09:33:48;1.55;;;0.40;;
21645;SDS011;10984;45.712;4.800;2023-08-06T09:36:14;2.90;;;0.50;;
21645;SDS011;10984;45.712;4.800;2023-08-06T09:38:40;2.72;;;0.75;;
21645;SDS011;10984;45.712;4.800;2023-08-06T09:41:06;5.38;;;1.50;;
21645;SDS011;10984;45.712;4.800;2023-08-06T09:46:16;2.92;;;0.85;;
21645;SDS011;10984;45.712;4.800;2023-08-06T09:51:26;2.20;;;0.40;;
21645;SDS011;10984;45.712;4.800;2023-08-06T09:53:52;3.60;;;0.70;;
21645;SDS011;10984;45.712;4.800;2023-08-06T09:56:18;1.23;;;0.70;;
21645;SDS011;10984;45.712;4.800;2023-08-06T09:58:44;3.15;;;0.70;;
21645;SDS011;10984;45.712;4.800;2023-08-06T10:01:13;1.75;;;0.50;;
21645;SDS011;10984;45.712;4.800;2023-08-06T10:03:41;3.42;;;0.75;;
21645;SDS011;10984;45.712;4.800;2023-08-06T10:06:08;3.60;;;1.05;;
21645;SDS011;10984;45.712;4.800;2023-08-06T10:08:35;2.25;;;0.40;;
21645;SDS011;10984;45.712;4.800;2023-08-06T10:11:01;2.45;;;0.50;;
21645;SDS011;10984;45.712;4.800;2023-08-06T10:13:29;2.88;;;0.80;;
21645;SDS011;10984;45.712;4.800;2023-08-06T10:15:55;4.47;;;0.70;;
21645;SDS011;10984;45.712;4.800;2023-08-06T10:18:21;2.25;;;0.63;;
21645;SDS011;10984;45.712;4.800;2023-08-06T10:20:47;3.58;;;0.60;;
21645;SDS011;10984;45.712;4.800;2023-08-06T10:23:13;3.28;;;0.73;;
21645;SDS011;10984;45.712;4.800;2023-08-06T10:25:40;1.65;;;0.60;;
21645;SDS011;10984;45.712;4.800;2023-08-06T10:28:33;2.03;;;0.70;;
21645;SDS011;10984;45.712;4.800;2023-08-06T10:31:01;1.98;;;0.50;;
21645;SDS011;10984;45.712;4.800;2023-08-06T10:33:39;5.35;;;1.30;;
21645;SDS011;10984;45.712;4.800;2023-08-06T10:36:08;4.03;;;0.70;;
21645;SDS011;10984;45.712;4.800;2023-08-06T10:38:34;5.20;;;0.70;;
21645;SDS011;10984;45.712;4.800;2023-08-06T10:41:02;2.85;;;0.60;;
21645;SDS011;10984;45.712;4.800;2023-08-06T10:43:29;4.07;;;0.60;;
21645;SDS011;10984;45.712;4.800;2023-08-06T10:45:58;2.47;;;0.50;;
21645;SDS011;10984;45.712;4.800;2023-08-06T10:51:11;3.20;;;0.75;;
21645;SDS011;10984;45.712;4.800;2023-08-06T10:53:41;4.95;;;0.50;;
21645;SDS011;10984;45.712;4.800;2023-08-06T11:01:40;1.95;;;0.47;;
21645;SDS011;10984;45.712;4.800;2023-08-06T11:04:06;8.15;;;0.98;;
21645;SDS011;10984;45.712;4.800;2023-08-06T11:06:32;2.50;;;0.60;;
21645;SDS011;10984;45.712;4.800;2023-08-06T11:08:58;2.85;;;0.77;;
21645;SDS011;10984;45.712;4.800;2023-08-06T11:11:24;3.50;;;0.60;;
21645;SDS011;10984;45.712;4.800;2023-08-06T11:13:50;1.30;;;0.60;;
21645;SDS011;10984;45.712;4.800;2023-08-06T11:16:17;3.13;;;0.50;;
21645;SDS011;10984;45.712;4.800;2023-08-06T11:18:44;1.63;;;0.57;;
21645;SDS011;10984;45.712;4.800;2023-08-06T11:21:10;6.95;;;0.63;;
21645;SDS011;10984;45.712;4.800;2023-08-06T11:23:55;3.72;;;1.15;;
21645;SDS011;10984;45.712;4.800;2023-08-06T11:26:21;2.40;;;0.50;;
21645;SDS011;10984;45.712;4.800;2023-08-06T11:28:48;4.13;;;1.48;;
21645;SDS011;10984;45.712;4.800;2023-08-06T11:34:01;2.53;;;1.00;;
21645;SDS011;10984;45.712;4.800;2023-08-06T11:39:11;4.55;;;1.05;;
21645;SDS011;10984;45.712;4.800;2023-08-06T11:41:36;3.05;;;0.70;;
21645;SDS011;10984;45.712;4.800;2023-08-06T11:44:03;1.85;;;0.52;;
21645;SDS011;10984;45.712;4.800;2023-08-06T11:46:29;2.53;;;0.63;;
21645;SDS011;10984;45.712;4.800;2023-08-06T11:49:14;1.40;;;0.47;;
21645;SDS011;10984;45.712;4.800;2023-08-06T11:51:39;2.70;;;0.65;;
21645;SDS011;10984;45.712;4.800;2023-08-06T11:54:05;2.28;;;0.80;;
21645;SDS011;10984;45.712;4.800;2023-08-06T11:56:32;1.92;;;0.50;;
21645;SDS011;10984;45.712;4.800;2023-08-06T11:58:57;2.45;;;0.52;;
21645;SDS011;10984;45.712;4.800;2023-08-06T12:01:23;1.58;;;0.40;;
21645;SDS011;10984;45.712;4.800;2023-08-06T12:03:49;3.10;;;0.70;;
21645;SDS011;10984;45.712;4.800;2023-08-06T12:06:15;2.17;;;0.60;;
21645;SDS011;10984;45.712;4.800;2023-08-06T12:08:40;1.60;;;0.52;;
21645;SDS011;10984;45.712;4.800;2023-08-06T12:11:07;1.63;;;0.40;;
21645;SDS011;10984;45.712;4.800;2023-08-06T12:13:34;2.42;;;0.70;;
21645;SDS011;10984;45.712;4.800;2023-08-06T12:15:59;2.15;;;0.50;;
21645;SDS011;10984;45.712;4.800;2023-08-06T12:18:25;2.53;;;0.80;;
21645;SDS011;10984;45.712;4.800;2023-08-06T12:20:50;1.98;;;0.60;;
21645;SDS011;10984;45.712;4.800;2023-08-06T12:23:16;2.67;;;0.68;;
21645;SDS011;10984;45.712;4.800;2023-08-06T12:25:42;2.33;;;0.80;;
21645;SDS011;10984;45.712;4.800;2023-08-06T12:28:09;3.38;;;0.65;;
21645;SDS011;10984;45.712;4.800;2023-08-06T12:30:35;2.85;;;0.60;;
21645;SDS011;10984;45.712;4.800;2023-08-06T12:33:01;2.17;;;0.73;;
21645;SDS011;10984;45.712;4.800;2023-08-06T12:35:26;2.58;;;0.60;;
21645;SDS011;10984;45.712;4.800;2023-08-06T12:37:52;1.45;;;0.50;;
21645;SDS011;10984;45.712;4.800;2023-08-06T12:40:19;2.13;;;0.65;;
21645;SDS011;10984;45.712;4.800;2023-08-06T12:42:45;3.80;;;0.77;;
21645;SDS011;10984;45.712;4.800;2023-08-06T12:45:11;2.50;;;0.70;;
21645;SDS011;10984;45.712;4.800;2023-08-06T12:47:37;5.40;;;0.70;;
21645;SDS011;10984;45.712;4.800;2023-08-06T12:50:02;2.03;;;0.60;;
21645;SDS011;10984;45.712;4.800;2023-08-06T12:52:28;3.92;;;0.60;;
21645;SDS011;10984;45.712;4.800;2023-08-06T12:54:54;2.45;;;0.65;;
21645;SDS011;10984;45.712;4.800;2023-08-06T12:57:20;5.22;;;0.68;;
21645;SDS011;10984;45.712;4.800;2023-08-06T12:59:45;3.45;;;0.68;;
21645;SDS011;10984;45.712;4.800;2023-08-06T13:02:11;2.25;;;0.60;;
21645;SDS011;10984;45.712;4.800;2023-08-06T13:04:37;4.82;;;0.65;;
21645;SDS011;10984;45.712;4.800;2023-08-06T13:07:02;5.35;;;0.80;;
21645;SDS011;10984;45.712;4.800;2023-08-06T13:09:28;3.22;;;0.60;;
21645;SDS011;10984;45.712;4.800;2023-08-06T13:11:54;1.88;;;0.70;;
21645;SDS011;10984;45.712;4.800;2023-08-06T13:14:20;1.95;;;0.60;;
21645;SDS011;10984;45.712;4.800;2023-08-06T13:16:46;2.17;;;0.60;;
21645;SDS011;10984;45.712;4.800;2023-08-06T13:19:12;2.55;;;0.60;;
21645;SDS011;10984;45.712;4.800;2023-08-06T13:24:41;2.67;;;0.80;;
21645;SDS011;10984;45.712;4.800;2023-08-06T13:27:07;2.30;;;0.70;;
21645;SDS011;10984;45.712;4.800;2023-08-06T13:29:34;2.33;;;0.60;;
21645;SDS011;10984;45.712;4.800;2023-08-06T13:32:00;2.63;;;0.50;;
21645;SDS011;10984;45.712;4.800;2023-08-06T13:34:25;5.35;;;0.75;;
21645;SDS011;10984;45.712;4.800;2023-08-06T13:36:51;3.28;;;0.60;;
21645;SDS011;10984;45.712;4.800;2023-08-06T13:39:17;3.15;;;0.70;;
21645;SDS011;10984;45.712;4.800;2023-08-06T13:41:43;3.10;;;0.70;;
21645;SDS011;10984;45.712;4.800;2023-08-06T13:44:09;2.83;;;0.90;;
21645;SDS011;10984;45.712;4.800;2023-08-06T13:46:35;6.10;;;0.80;;
21645;SDS011;10984;45.712;4.800;2023-08-06T13:49:01;1.50;;;0.50;;
21645;SDS011;10984;45.712;4.800;2023-08-06T13:51:27;3.42;;;0.73;;
21645;SDS011;10984;45.712;4.800;2023-08-06T13:53:53;2.45;;;0.70;;
21645;SDS011;10984;45.712;4.800;2023-08-06T13:56:19;2.95;;;0.60;;
21645;SDS011;10984;45.712;4.800;2023-08-06T13:58:45;1.88;;;0.65;;
21645;SDS011;10984;45.712;4.800;2023-08-06T14:01:11;2.65;;;0.50;;
21645;SDS011;10984;45.712;4.800;2023-08-06T14:03:38;3.45;;;0.85;;
21645;SDS011;10984;45.712;4.800;2023-08-06T14:06:03;3.65;;;0.77;;
21645;SDS011;10984;45.712;4.800;2023-08-06T14:08:29;2.63;;;1.13;;
21645;SDS011;10984;45.712;4.800;2023-08-06T14:10:55;2.40;;;0.50;;
21645;SDS011;10984;45.712;4.800;2023-08-06T14:16:04;2.75;;;0.73;;
21645;SDS011;10984;45.712;4.800;2023-08-06T14:18:30;2.85;;;0.55;;
21645;SDS011;10984;45.712;4.800;2023-08-06T14:20:56;3.38;;;0.90;;
21645;SDS011;10984;45.712;4.800;2023-08-06T14:23:21;3.13;;;0.70;;
21645;SDS011;10984;45.712;4.800;2023-08-06T14:25:47;6.38;;;1.20;;
21645;SDS011;10984;45.712;4.800;2023-08-06T14:28:13;1.45;;;0.57;;
21645;SDS011;10984;45.712;4.800;2023-08-06T14:30:38;2.35;;;0.55;;
21645;SDS011;10984;45.712;4.800;2023-08-06T14:33:04;2.40;;;0.65;;
21645;SDS011;10984;45.712;4.800;2023-08-06T14:35:29;2.55;;;0.77;;
21645;SDS011;10984;45.712;4.800;2023-08-06T14:37:55;3.63;;;0.68;;
21645;SDS011;10984;45.712;4.800;2023-08-06T14:40:21;1.92;;;0.55;;
21645;SDS011;10984;45.712;4.800;2023-08-06T14:42:46;3.55;;;0.68;;
21645;SDS011;10984;45.712;4.800;2023-08-06T14:45:12;3.70;;;0.70;;
21645;SDS011;10984;45.712;4.800;2023-08-06T14:47:38;2.17;;;0.50;;
21645;SDS011;10984;45.712;4.800;2023-08-06T14:50:03;2.15;;;0.68;;
21645;SDS011;10984;45.712;4.800;2023-08-06T14:52:29;3.25;;;0.88;;
21645;SDS011;10984;45.712;4.800;2023-08-06T14:54:56;5.40;;;0.70;;
21645;SDS011;10984;45.712;4.800;2023-08-06T14:57:22;1.65;;;0.40;;
21645;SDS011;10984;45.712;4.800;2023-08-06T14:59:52;1.52;;;0.50;;
21645;SDS011;10984;45.712;4.800;2023-08-06T15:02:18;1.98;;;0.50;;
21645;SDS011;10984;45.712;4.800;2023-08-06T15:04:44;4.60;;;0.70;;
21645;SDS011;10984;45.712;4.800;2023-08-06T15:07:10;3.03;;;0.93;;
21645;SDS011;10984;45.712;4.800;2023-08-06T15:09:35;1.63;;;0.50;;
21645;SDS011;10984;45.712;4.800;2023-08-06T15:12:01;2.65;;;0.50;;
21645;SDS011;10984;45.712;4.800;2023-08-06T15:14:27;1.33;;;0.50;;
21645;SDS011;10984;45.712;4.800;2023-08-06T15:16:52;3.38;;;0.63;;
21645;SDS011;10984;45.712;4.800;2023-08-06T15:19:20;0.98;;;0.30;;
21645;SDS011;10984;45.712;4.800;2023-08-06T15:21:46;2.25;;;0.55;;
21645;SDS011;10984;45.712;4.800;2023-08-06T15:24:12;1.33;;;0.45;;
21645;SDS011;10984;45.712;4.800;2023-08-06T15:26:38;1.65;;;0.52;;
21645;SDS011;10984;45.712;4.800;2023-08-06T15:29:04;2.35;;;0.60;;